Terminal Aerodrome Forecast
Issued by NWS Corpus Christi, TX

Home | Current Version | Previous Version | Text Only | Print | Product List | Glossary On
Versions: 1 2 3 4 5 6 7 8 9 10 11 12 13 14 15 16 17 18 19
000
FTUS44 KCRP 210235 AAA
TAFCRP
TAF AMD
KCRP 210235Z 2103/2124 12015KT P6SM BKN018 OVC120
     FM210600 14012KT P6SM BKN012 OVC025
     FM211400 15016G23KT P6SM VCSH SCT018 BKN028
     FM211800 15018G25KT P6SM VCSH BKN018 OVC035 PROB30 2119/2123
      5SM -SHRA OVC015=

USA.gov is the U.S. government's official web portal to all federal, state and local government web resources and services.